sensor_id;sensor_type;location;lat;lon;timestamp;P1;durP1;ratioP1;P2;durP2;ratioP2
32347;SDS011;18821;44.800;10.326;2023-01-15T00:01:03;99.70;;;55.95;;
32347;SDS011;18821;44.800;10.326;2023-01-15T00:03:29;105.97;;;57.20;;
32347;SDS011;18821;44.800;10.326;2023-01-15T00:05:56;103.35;;;56.83;;
32347;SDS011;18821;44.800;10.326;2023-01-15T00:08:27;109.80;;;59.22;;
32347;SDS011;18821;44.800;10.326;2023-01-15T00:10:53;102.50;;;57.42;;
32347;SDS011;18821;44.800;10.326;2023-01-15T00:13:20;107.68;;;55.95;;
32347;SDS011;18821;44.800;10.326;2023-01-15T00:15:46;107.82;;;57.22;;
32347;SDS011;18821;44.800;10.326;2023-01-15T00:18:12;109.57;;;56.08;;
32347;SDS011;18821;44.800;10.326;2023-01-15T00:20:38;96.57;;;55.28;;
32347;SDS011;18821;44.800;10.326;2023-01-15T00:23:04;103.03;;;55.80;;
32347;SDS011;18821;44.800;10.326;2023-01-15T00:25:30;104.70;;;58.08;;
32347;SDS011;18821;44.800;10.326;2023-01-15T00:28:14;100.93;;;56.53;;
32347;SDS011;18821;44.800;10.326;2023-01-15T00:30:44;101.97;;;55.53;;
32347;SDS011;18821;44.800;10.326;2023-01-15T00:33:10;99.72;;;55.47;;
32347;SDS011;18821;44.800;10.326;2023-01-15T00:35:36;98.07;;;56.97;;
32347;SDS011;18821;44.800;10.326;2023-01-15T00:38:02;100.95;;;56.50;;
32347;SDS011;18821;44.800;10.326;2023-01-15T00:40:29;104.72;;;59.60;;
32347;SDS011;18821;44.800;10.326;2023-01-15T00:42:54;97.65;;;54.85;;
32347;SDS011;18821;44.800;10.326;2023-01-15T00:45:20;108.10;;;57.47;;
32347;SDS011;18821;44.800;10.326;2023-01-15T00:47:46;101.10;;;52.53;;
32347;SDS011;18821;44.800;10.326;2023-01-15T00:50:14;102.72;;;56.38;;
32347;SDS011;18821;44.800;10.326;2023-01-15T00:52:40;116.13;;;59.88;;
32347;SDS011;18821;44.800;10.326;2023-01-15T00:55:07;110.32;;;60.30;;
32347;SDS011;18821;44.800;10.326;2023-01-15T00:57:49;116.97;;;61.45;;
32347;SDS011;18821;44.800;10.326;2023-01-15T01:00:16;109.63;;;58.83;;
32347;SDS011;18821;44.800;10.326;2023-01-15T01:02:42;110.20;;;60.15;;
32347;SDS011;18821;44.800;10.326;2023-01-15T01:05:08;109.03;;;61.58;;
32347;SDS011;18821;44.800;10.326;2023-01-15T01:07:36;110.63;;;59.33;;
32347;SDS011;18821;44.800;10.326;2023-01-15T01:10:02;114.75;;;59.10;;
32347;SDS011;18821;44.800;10.326;2023-01-15T01:12:28;104.97;;;59.00;;
32347;SDS011;18821;44.800;10.326;2023-01-15T01:14:54;108.90;;;60.45;;
32347;SDS011;18821;44.800;10.326;2023-01-15T01:17:20;114.22;;;60.45;;
32347;SDS011;18821;44.800;10.326;2023-01-15T01:19:46;115.43;;;60.25;;
32347;SDS011;18821;44.800;10.326;2023-01-15T01:22:12;109.60;;;60.13;;
32347;SDS011;18821;44.800;10.326;2023-01-15T01:24:38;105.20;;;58.33;;
32347;SDS011;18821;44.800;10.326;2023-01-15T01:27:05;103.43;;;60.25;;
32347;SDS011;18821;44.800;10.326;2023-01-15T01:29:31;108.97;;;60.85;;
32347;SDS011;18821;44.800;10.326;2023-01-15T01:31:57;105.40;;;57.78;;
32347;SDS011;18821;44.800;10.326;2023-01-15T01:34:23;101.05;;;57.53;;
32347;SDS011;18821;44.800;10.326;2023-01-15T01:36:49;107.70;;;59.92;;
32347;SDS011;18821;44.800;10.326;2023-01-15T01:39:16;106.68;;;60.67;;
32347;SDS011;18821;44.800;10.326;2023-01-15T01:41:44;102.47;;;57.70;;
32347;SDS011;18821;44.800;10.326;2023-01-15T01:47:04;100.35;;;56.33;;
32347;SDS011;18821;44.800;10.326;2023-01-15T01:49:33;103.78;;;57.47;;
32347;SDS011;18821;44.800;10.326;2023-01-15T01:52:15;109.72;;;58.63;;
32347;SDS011;18821;44.800;10.326;2023-01-15T01:54:49;98.40;;;52.17;;
32347;SDS011;18821;44.800;10.326;2023-01-15T01:57:17;102.45;;;57.80;;
32347;SDS011;18821;44.800;10.326;2023-01-15T01:59:46;107.32;;;56.38;;
32347;SDS011;18821;44.800;10.326;2023-01-15T02:02:12;102.18;;;56.60;;
32347;SDS011;18821;44.800;10.326;2023-01-15T02:04:39;109.65;;;60.80;;
32347;SDS011;18821;44.800;10.326;2023-01-15T02:07:05;92.78;;;52.55;;
32347;SDS011;18821;44.800;10.326;2023-01-15T02:09:32;96.82;;;54.75;;
32347;SDS011;18821;44.800;10.326;2023-01-15T02:12:01;101.70;;;57.38;;
32347;SDS011;18821;44.800;10.326;2023-01-15T02:17:25;108.60;;;60.30;;
32347;SDS011;18821;44.800;10.326;2023-01-15T02:22:59;98.95;;;55.50;;
32347;SDS011;18821;44.800;10.326;2023-01-15T02:28:21;100.93;;;54.90;;
32347;SDS011;18821;44.800;10.326;2023-01-15T02:30:52;116.20;;;62.63;;
32347;SDS011;18821;44.800;10.326;2023-01-15T02:35:58;102.97;;;55.97;;
32347;SDS011;18821;44.800;10.326;2023-01-15T02:38:30;107.60;;;58.15;;
32347;SDS011;18821;44.800;10.326;2023-01-15T02:41:01;102.80;;;59.40;;
32347;SDS011;18821;44.800;10.326;2023-01-15T02:43:34;101.63;;;57.83;;
32347;SDS011;18821;44.800;10.326;2023-01-15T02:46:02;104.18;;;58.83;;
32347;SDS011;18821;44.800;10.326;2023-01-15T02:48:31;104.18;;;57.97;;
32347;SDS011;18821;44.800;10.326;2023-01-15T02:51:06;100.03;;;56.80;;
32347;SDS011;18821;44.800;10.326;2023-01-15T02:53:37;99.28;;;55.17;;
32347;SDS011;18821;44.800;10.326;2023-01-15T02:56:08;101.55;;;56.65;;
32347;SDS011;18821;44.800;10.326;2023-01-15T02:58:44;104.47;;;55.83;;
32347;SDS011;18821;44.800;10.326;2023-01-15T03:01:20;106.93;;;57.67;;
32347;SDS011;18821;44.800;10.326;2023-01-15T03:07:09;102.35;;;57.45;;
32347;SDS011;18821;44.800;10.326;2023-01-15T03:09:48;114.28;;;60.45;;
32347;SDS011;18821;44.800;10.326;2023-01-15T03:15:24;96.60;;;54.45;;
32347;SDS011;18821;44.800;10.326;2023-01-15T03:18:10;108.68;;;58.35;;
32347;SDS011;18821;44.800;10.326;2023-01-15T03:20:42;103.55;;;59.58;;
32347;SDS011;18821;44.800;10.326;2023-01-15T03:23:15;104.87;;;60.90;;
32347;SDS011;18821;44.800;10.326;2023-01-15T03:25:47;107.97;;;58.95;;
32347;SDS011;18821;44.800;10.326;2023-01-15T03:28:15;108.95;;;60.75;;
32347;SDS011;18821;44.800;10.326;2023-01-15T03:30:47;106.43;;;59.85;;
32347;SDS011;18821;44.800;10.326;2023-01-15T03:33:13;115.03;;;60.63;;
32347;SDS011;18821;44.800;10.326;2023-01-15T03:38:31;111.05;;;61.90;;
32347;SDS011;18821;44.800;10.326;2023-01-15T03:43:40;103.03;;;60.28;;
32347;SDS011;18821;44.800;10.326;2023-01-15T03:48:56;110.65;;;59.80;;
32347;SDS011;18821;44.800;10.326;2023-01-15T03:51:56;99.20;;;57.80;;
32347;SDS011;18821;44.800;10.326;2023-01-15T03:59:58;98.72;;;58.45;;
32347;SDS011;18821;44.800;10.326;2023-01-15T04:02:30;106.95;;;61.08;;
32347;SDS011;18821;44.800;10.326;2023-01-15T04:04:56;106.88;;;59.97;;
32347;SDS011;18821;44.800;10.326;2023-01-15T04:07:23;98.72;;;57.10;;
32347;SDS011;18821;44.800;10.326;2023-01-15T04:09:50;102.10;;;58.97;;
32347;SDS011;18821;44.800;10.326;2023-01-15T04:12:17;101.65;;;58.30;;
32347;SDS011;18821;44.800;10.326;2023-01-15T04:14:46;104.22;;;58.00;;
32347;SDS011;18821;44.800;10.326;2023-01-15T04:17:18;102.53;;;58.83;;
32347;SDS011;18821;44.800;10.326;2023-01-15T04:19:44;99.65;;;56.88;;
32347;SDS011;18821;44.800;10.326;2023-01-15T04:22:11;102.20;;;57.42;;
32347;SDS011;18821;44.800;10.326;2023-01-15T04:24:37;108.50;;;59.05;;
32347;SDS011;18821;44.800;10.326;2023-01-15T04:27:03;101.72;;;57.33;;
32347;SDS011;18821;44.800;10.326;2023-01-15T04:29:29;100.70;;;57.78;;
32347;SDS011;18821;44.800;10.326;2023-01-15T04:31:55;107.25;;;59.42;;
32347;SDS011;18821;44.800;10.326;2023-01-15T04:34:23;100.90;;;58.15;;
32347;SDS011;18821;44.800;10.326;2023-01-15T04:36:50;102.78;;;58.60;;
32347;SDS011;18821;44.800;10.326;2023-01-15T04:39:16;100.03;;;56.08;;
32347;SDS011;18821;44.800;10.326;2023-01-15T04:41:42;106.60;;;59.55;;
32347;SDS011;18821;44.800;10.326;2023-01-15T04:44:27;111.93;;;56.70;;
32347;SDS011;18821;44.800;10.326;2023-01-15T04:46:53;103.57;;;57.22;;
32347;SDS011;18821;44.800;10.326;2023-01-15T04:49:21;105.93;;;56.15;;
32347;SDS011;18821;44.800;10.326;2023-01-15T04:51:47;105.07;;;60.40;;
32347;SDS011;18821;44.800;10.326;2023-01-15T04:54:34;109.68;;;60.95;;
32347;SDS011;18821;44.800;10.326;2023-01-15T04:57:00;104.15;;;57.92;;
32347;SDS011;18821;44.800;10.326;2023-01-15T04:59:26;102.97;;;57.78;;
32347;SDS011;18821;44.800;10.326;2023-01-15T05:01:52;104.03;;;58.75;;
32347;SDS011;18821;44.800;10.326;2023-01-15T05:04:18;107.68;;;58.83;;
32347;SDS011;18821;44.800;10.326;2023-01-15T05:06:44;105.13;;;57.75;;
32347;SDS011;18821;44.800;10.326;2023-01-15T05:09:10;99.70;;;58.60;;
32347;SDS011;18821;44.800;10.326;2023-01-15T05:11:37;100.03;;;56.97;;
32347;SDS011;18821;44.800;10.326;2023-01-15T05:14:04;108.75;;;58.30;;
32347;SDS011;18821;44.800;10.326;2023-01-15T05:16:30;100.32;;;56.65;;
32347;SDS011;18821;44.800;10.326;2023-01-15T05:18:58;108.60;;;61.25;;
32347;SDS011;18821;44.800;10.326;2023-01-15T05:24:09;104.95;;;56.60;;
32347;SDS011;18821;44.800;10.326;2023-01-15T05:26:39;103.28;;;57.50;;
32347;SDS011;18821;44.800;10.326;2023-01-15T05:29:05;107.35;;;59.42;;
32347;SDS011;18821;44.800;10.326;2023-01-15T05:31:31;109.75;;;62.10;;
32347;SDS011;18821;44.800;10.326;2023-01-15T05:34:00;112.07;;;60.38;;
32347;SDS011;18821;44.800;10.326;2023-01-15T05:36:27;106.22;;;61.58;;
32347;SDS011;18821;44.800;10.326;2023-01-15T05:38:55;112.93;;;61.47;;
32347;SDS011;18821;44.800;10.326;2023-01-15T05:41:26;105.57;;;60.38;;
32347;SDS011;18821;44.800;10.326;2023-01-15T05:44:11;109.47;;;61.88;;
32347;SDS011;18821;44.800;10.326;2023-01-15T05:46:38;107.78;;;60.25;;
32347;SDS011;18821;44.800;10.326;2023-01-15T05:49:06;110.60;;;61.90;;
32347;SDS011;18821;44.800;10.326;2023-01-15T05:51:36;105.63;;;58.45;;
32347;SDS011;18821;44.800;10.326;2023-01-15T05:54:04;106.50;;;60.63;;
32347;SDS011;18821;44.800;10.326;2023-01-15T05:56:33;106.03;;;61.15;;
32347;SDS011;18821;44.800;10.326;2023-01-15T05:59:00;109.80;;;64.18;;
32347;SDS011;18821;44.800;10.326;2023-01-15T06:01:26;112.03;;;63.80;;
32347;SDS011;18821;44.800;10.326;2023-01-15T06:03:52;110.10;;;62.35;;
32347;SDS011;18821;44.800;10.326;2023-01-15T06:06:20;117.53;;;65.43;;
32347;SDS011;18821;44.800;10.326;2023-01-15T06:08:45;110.55;;;64.35;;
32347;SDS011;18821;44.800;10.326;2023-01-15T06:11:11;108.72;;;61.38;;
32347;SDS011;18821;44.800;10.326;2023-01-15T06:13:38;108.43;;;60.53;;
32347;SDS011;18821;44.800;10.326;2023-01-15T06:16:05;111.65;;;60.42;;
32347;SDS011;18821;44.800;10.326;2023-01-15T06:18:31;109.70;;;60.88;;
32347;SDS011;18821;44.800;10.326;2023-01-15T06:21:03;105.50;;;62.60;;
32347;SDS011;18821;44.800;10.326;2023-01-15T06:23:30;109.97;;;62.53;;
32347;SDS011;18821;44.800;10.326;2023-01-15T06:26:00;104.22;;;61.38;;
32347;SDS011;18821;44.800;10.326;2023-01-15T06:28:27;107.88;;;61.80;;
32347;SDS011;18821;44.800;10.326;2023-01-15T06:30:53;106.10;;;60.60;;
32347;SDS011;18821;44.800;10.326;2023-01-15T06:33:19;105.57;;;61.85;;
32347;SDS011;18821;44.800;10.326;2023-01-15T06:35:45;113.25;;;64.03;;
32347;SDS011;18821;44.800;10.326;2023-01-15T06:38:11;106.70;;;61.65;;
32347;SDS011;18821;44.800;10.326;2023-01-15T06:40:37;105.00;;;60.83;;
32347;SDS011;18821;44.800;10.326;2023-01-15T06:43:04;111.32;;;61.60;;
32347;SDS011;18821;44.800;10.326;2023-01-15T06:45:48;103.17;;;60.00;;
32347;SDS011;18821;44.800;10.326;2023-01-15T06:48:32;105.30;;;59.92;;
32347;SDS011;18821;44.800;10.326;2023-01-15T06:50:59;113.38;;;62.22;;
32347;SDS011;18821;44.800;10.326;2023-01-15T06:53:25;120.70;;;65.45;;
32347;SDS011;18821;44.800;10.326;2023-01-15T06:55:50;118.22;;;63.10;;
32347;SDS011;18821;44.800;10.326;2023-01-15T06:58:16;112.47;;;64.10;;
32347;SDS011;18821;44.800;10.326;2023-01-15T07:00:42;112.35;;;62.53;;
32347;SDS011;18821;44.800;10.326;2023-01-15T07:03:10;113.03;;;61.80;;
32347;SDS011;18821;44.800;10.326;2023-01-15T07:05:39;106.93;;;63.22;;
32347;SDS011;18821;44.800;10.326;2023-01-15T07:08:05;107.82;;;60.42;;
32347;SDS011;18821;44.800;10.326;2023-01-15T07:10:32;110.75;;;63.42;;
32347;SDS011;18821;44.800;10.326;2023-01-15T07:12:59;113.25;;;62.88;;
32347;SDS011;18821;44.800;10.326;2023-01-15T07:15:25;108.90;;;62.20;;
32347;SDS011;18821;44.800;10.326;2023-01-15T07:17:55;105.65;;;63.25;;
32347;SDS011;18821;44.800;10.326;2023-01-15T07:20:21;112.47;;;62.80;;
32347;SDS011;18821;44.800;10.326;2023-01-15T07:22:47;104.95;;;61.45;;
32347;SDS011;18821;44.800;10.326;2023-01-15T07:25:14;106.05;;;61.70;;
32347;SDS011;18821;44.800;10.326;2023-01-15T07:27:40;106.90;;;63.50;;
32347;SDS011;18821;44.800;10.326;2023-01-15T07:30:07;105.90;;;61.95;;
32347;SDS011;18821;44.800;10.326;2023-01-15T07:32:33;103.53;;;61.33;;
32347;SDS011;18821;44.800;10.326;2023-01-15T07:34:59;104.53;;;60.58;;
32347;SDS011;18821;44.800;10.326;2023-01-15T07:37:25;107.88;;;63.05;;
32347;SDS011;18821;44.800;10.326;2023-01-15T07:39:50;104.57;;;62.15;;
32347;SDS011;18821;44.800;10.326;2023-01-15T07:42:16;104.35;;;62.53;;
32347;SDS011;18821;44.800;10.326;2023-01-15T07:45:01;113.38;;;66.20;;
32347;SDS011;18821;44.800;10.326;2023-01-15T07:47:46;108.05;;;62.30;;
32347;SDS011;18821;44.800;10.326;2023-01-15T07:50:30;111.15;;;63.28;;
32347;SDS011;18821;44.800;10.326;2023-01-15T07:52:56;110.53;;;64.57;;
32347;SDS011;18821;44.800;10.326;2023-01-15T07:55:22;110.70;;;63.50;;
32347;SDS011;18821;44.800;10.326;2023-01-15T07:57:48;110.68;;;63.28;;
32347;SDS011;18821;44.800;10.326;2023-01-15T08:00:18;105.85;;;64.07;;
32347;SDS011;18821;44.800;10.326;2023-01-15T08:02:46;107.50;;;62.22;;
32347;SDS011;18821;44.800;10.326;2023-01-15T08:05:15;111.22;;;63.60;;
32347;SDS011;18821;44.800;10.326;2023-01-15T08:07:42;107.45;;;61.85;;
32347;SDS011;18821;44.800;10.326;2023-01-15T08:10:10;115.20;;;63.65;;
32347;SDS011;18821;44.800;10.326;2023-01-15T08:12:37;108.50;;;62.28;;
32347;SDS011;18821;44.800;10.326;2023-01-15T08:15:21;110.13;;;62.00;;
32347;SDS011;18821;44.800;10.326;2023-01-15T08:17:50;103.13;;;61.08;;
32347;SDS011;18821;44.800;10.326;2023-01-15T08:20:18;101.47;;;60.47;;
32347;SDS011;18821;44.800;10.326;2023-01-15T08:23:01;117.05;;;61.60;;
32347;SDS011;18821;44.800;10.326;2023-01-15T08:25:44;105.85;;;60.05;;
32347;SDS011;18821;44.800;10.326;2023-01-15T08:28:10;112.85;;;62.55;;
32347;SDS011;18821;44.800;10.326;2023-01-15T08:30:38;108.90;;;59.20;;
32347;SDS011;18821;44.800;10.326;2023-01-15T08:33:04;117.28;;;64.25;;
32347;SDS011;18821;44.800;10.326;2023-01-15T08:35:30;112.20;;;59.55;;
32347;SDS011;18821;44.800;10.326;2023-01-15T08:38:02;111.47;;;64.45;;
32347;SDS011;18821;44.800;10.326;2023-01-15T08:40:29;113.20;;;63.40;;
32347;SDS011;18821;44.800;10.326;2023-01-15T08:42:55;119.20;;;66.25;;
32347;SDS011;18821;44.800;10.326;2023-01-15T08:45:21;117.78;;;66.43;;
32347;SDS011;18821;44.800;10.326;2023-01-15T08:47:47;120.22;;;64.88;;
32347;SDS011;18821;44.800;10.326;2023-01-15T08:50:13;112.35;;;65.30;;
32347;SDS011;18821;44.800;10.326;2023-01-15T08:52:39;118.30;;;66.95;;
32347;SDS011;18821;44.800;10.326;2023-01-15T08:55:05;118.00;;;67.20;;
32347;SDS011;18821;44.800;10.326;2023-01-15T08:57:32;117.35;;;68.97;;
32347;SDS011;18821;44.800;10.326;2023-01-15T08:59:59;118.57;;;68.70;;
32347;SDS011;18821;44.800;10.326;2023-01-15T09:02:25;128.50;;;70.60;;
32347;SDS011;18821;44.800;10.326;2023-01-15T09:04:52;109.65;;;64.55;;
32347;SDS011;18821;44.800;10.326;2023-01-15T09:07:18;118.80;;;68.22;;
32347;SDS011;18821;44.800;10.326;2023-01-15T09:09:43;113.82;;;66.07;;
32347;SDS011;18821;44.800;10.326;2023-01-15T09:12:09;118.85;;;68.35;;
32347;SDS011;18821;44.800;10.326;2023-01-15T09:14:35;118.78;;;67.90;;
32347;SDS011;18821;44.800;10.326;2023-01-15T09:17:01;112.10;;;65.60;;
32347;SDS011;18821;44.800;10.326;2023-01-15T09:19:27;111.25;;;65.63;;
32347;SDS011;18821;44.800;10.326;2023-01-15T09:21:53;112.45;;;64.05;;
32347;SDS011;18821;44.800;10.326;2023-01-15T09:24:19;118.63;;;66.63;;
32347;SDS011;18821;44.800;10.326;2023-01-15T09:27:02;117.88;;;67.20;;
32347;SDS011;18821;44.800;10.326;2023-01-15T09:29:28;113.65;;;67.70;;
32347;SDS011;18821;44.800;10.326;2023-01-15T09:31:54;121.28;;;67.15;;
32347;SDS011;18821;44.800;10.326;2023-01-15T09:34:20;118.35;;;67.45;;
32347;SDS011;18821;44.800;10.326;2023-01-15T09:36:46;122.53;;;69.32;;
32347;SDS011;18821;44.800;10.326;2023-01-15T09:39:12;121.18;;;70.32;;
32347;SDS011;18821;44.800;10.326;2023-01-15T09:50:22;116.68;;;67.85;;
32347;SDS011;18821;44.800;10.326;2023-01-15T09:53:04;118.15;;;69.30;;
32347;SDS011;18821;44.800;10.326;2023-01-15T09:55:44;117.55;;;68.65;;
32347;SDS011;18821;44.800;10.326;2023-01-15T09:58:12;113.07;;;66.18;;
32347;SDS011;18821;44.800;10.326;2023-01-15T10:00:47;122.60;;;68.70;;
32347;SDS011;18821;44.800;10.326;2023-01-15T10:03:28;119.67;;;69.70;;
32347;SDS011;18821;44.800;10.326;2023-01-15T10:09:43;117.05;;;67.10;;
32347;SDS011;18821;44.800;10.326;2023-01-15T10:11:54;116.20;;;64.63;;
32347;SDS011;18821;44.800;10.326;2023-01-15T10:14:53;114.18;;;66.70;;
32347;SDS011;18821;44.800;10.326;2023-01-15T10:17:36;112.05;;;62.45;;
32347;SDS011;18821;44.800;10.326;2023-01-15T10:20:16;114.35;;;65.57;;
32347;SDS011;18821;44.800;10.326;2023-01-15T10:23:31;105.50;;;62.55;;
32347;SDS011;18821;44.800;10.326;2023-01-15T10:25:41;106.18;;;62.40;;
32347;SDS011;18821;44.800;10.326;2023-01-15T10:28:24;111.63;;;63.08;;
32347;SDS011;18821;44.800;10.326;2023-01-15T10:30:54;115.40;;;66.00;;
32347;SDS011;18821;44.800;10.326;2023-01-15T10:36:16;109.75;;;63.42;;
32347;SDS011;18821;44.800;10.326;2023-01-15T10:38:55;102.65;;;58.30;;
32347;SDS011;18821;44.800;10.326;2023-01-15T10:44:47;104.20;;;60.10;;
32347;SDS011;18821;44.800;10.326;2023-01-15T10:47:28;102.82;;;59.50;;
32347;SDS011;18821;44.800;10.326;2023-01-15T10:49:58;104.07;;;61.65;;
32347;SDS011;18821;44.800;10.326;2023-01-15T10:52:31;101.65;;;61.45;;
32347;SDS011;18821;44.800;10.326;2023-01-15T10:58:07;106.82;;;63.92;;
32347;SDS011;18821;44.800;10.326;2023-01-15T11:00:35;110.35;;;61.83;;
32347;SDS011;18821;44.800;10.326;2023-01-15T11:03:03;102.32;;;58.33;;
32347;SDS011;18821;44.800;10.326;2023-01-15T11:05:36;110.57;;;61.58;;
32347;SDS011;18821;44.800;10.326;2023-01-15T11:08:07;108.72;;;63.72;;
32347;SDS011;18821;44.800;10.326;2023-01-15T11:10:48;106.22;;;62.63;;
32347;SDS011;18821;44.800;10.326;2023-01-15T11:13:21;110.25;;;62.83;;
32347;SDS011;18821;44.800;10.326;2023-01-15T11:16:12;111.32;;;62.47;;
32347;SDS011;18821;44.800;10.326;2023-01-15T11:19:26;102.03;;;59.40;;
32347;SDS011;18821;44.800;10.326;2023-01-15T11:24:36;114.32;;;63.47;;
32347;SDS011;18821;44.800;10.326;2023-01-15T11:27:12;109.70;;;62.25;;
32347;SDS011;18821;44.800;10.326;2023-01-15T11:29:42;106.05;;;60.78;;
32347;SDS011;18821;44.800;10.326;2023-01-15T11:37:40;104.35;;;61.83;;
32347;SDS011;18821;44.800;10.326;2023-01-15T11:40:16;116.40;;;62.63;;
32347;SDS011;18821;44.800;10.326;2023-01-15T11:42:49;105.18;;;60.05;;
32347;SDS011;18821;44.800;10.326;2023-01-15T11:45:45;108.57;;;60.63;;
32347;SDS011;18821;44.800;10.326;2023-01-15T11:48:41;109.93;;;59.35;;
32347;SDS011;18821;44.800;10.326;2023-01-15T11:51:27;118.50;;;63.28;;
32347;SDS011;18821;44.800;10.326;2023-01-15T11:53:58;101.53;;;61.75;;
32347;SDS011;18821;44.800;10.326;2023-01-15T11:56:28;106.80;;;59.83;;
32347;SDS011;18821;44.800;10.326;2023-01-15T11:58:56;99.90;;;59.38;;
32347;SDS011;18821;44.800;10.326;2023-01-15T12:03:57;97.68;;;58.10;;
32347;SDS011;18821;44.800;10.326;2023-01-15T12:06:35;104.35;;;60.47;;
32347;SDS011;18821;44.800;10.326;2023-01-15T12:12:17;104.28;;;58.42;;
32347;SDS011;18821;44.800;10.326;2023-01-15T12:15:00;105.88;;;61.15;;
32347;SDS011;18821;44.800;10.326;2023-01-15T12:20:39;108.60;;;62.83;;
32347;SDS011;18821;44.800;10.326;2023-01-15T12:26:27;107.15;;;61.50;;
32347;SDS011;18821;44.800;10.326;2023-01-15T12:29:11;107.22;;;60.97;;
32347;SDS011;18821;44.800;10.326;2023-01-15T12:31:46;108.57;;;61.08;;
32347;SDS011;18821;44.800;10.326;2023-01-15T12:37:44;98.13;;;58.13;;
32347;SDS011;18821;44.800;10.326;2023-01-15T12:42:52;105.13;;;60.72;;
32347;SDS011;18821;44.800;10.326;2023-01-15T12:45:46;103.90;;;59.03;;
32347;SDS011;18821;44.800;10.326;2023-01-15T12:48:26;108.30;;;62.35;;
32347;SDS011;18821;44.800;10.326;2023-01-15T12:50:59;111.78;;;62.78;;
32347;SDS011;18821;44.800;10.326;2023-01-15T12:53:29;103.72;;;58.50;;
32347;SDS011;18821;44.800;10.326;2023-01-15T13:06:24;101.90;;;57.58;;
32347;SDS011;18821;44.800;10.326;2023-01-15T13:11:27;107.95;;;63.72;;
32347;SDS011;18821;44.800;10.326;2023-01-15T13:13:53;110.00;;;63.42;;
32347;SDS011;18821;44.800;10.326;2023-01-15T13:16:35;110.85;;;64.38;;
32347;SDS011;18821;44.800;10.326;2023-01-15T13:21:47;107.47;;;62.28;;
32347;SDS011;18821;44.800;10.326;2023-01-15T13:24:30;107.88;;;63.78;;
32347;SDS011;18821;44.800;10.326;2023-01-15T13:32:44;105.07;;;63.25;;
32347;SDS011;18821;44.800;10.326;2023-01-15T13:35:18;113.40;;;63.47;;
32347;SDS011;18821;44.800;10.326;2023-01-15T13:37:46;113.30;;;65.03;;
32347;SDS011;18821;44.800;10.326;2023-01-15T13:40:17;113.80;;;63.88;;
32347;SDS011;18821;44.800;10.326;2023-01-15T13:42:47;119.82;;;67.95;;
32347;SDS011;18821;44.800;10.326;2023-01-15T13:47:57;107.03;;;62.13;;
32347;SDS011;18821;44.800;10.326;2023-01-15T13:50:55;107.97;;;63.95;;
32347;SDS011;18821;44.800;10.326;2023-01-15T13:53:29;114.75;;;63.38;;
32347;SDS011;18821;44.800;10.326;2023-01-15T13:58:31;106.47;;;62.83;;
32347;SDS011;18821;44.800;10.326;2023-01-15T14:01:06;101.30;;;61.33;;
32347;SDS011;18821;44.800;10.326;2023-01-15T14:03:52;107.50;;;63.75;;
32347;SDS011;18821;44.800;10.326;2023-01-15T14:06:33;116.18;;;68.20;;
32347;SDS011;18821;44.800;10.326;2023-01-15T14:25:44;107.63;;;64.82;;
32347;SDS011;18821;44.800;10.326;2023-01-15T14:36:27;117.80;;;67.35;;
32347;SDS011;18821;44.800;10.326;2023-01-15T14:38:57;116.22;;;70.03;;
32347;SDS011;18821;44.800;10.326;2023-01-15T14:41:26;119.25;;;70.25;;
32347;SDS011;18821;44.800;10.326;2023-01-15T14:43:55;119.57;;;71.07;;
32347;SDS011;18821;44.800;10.326;2023-01-15T14:46:28;122.50;;;69.72;;
32347;SDS011;18821;44.800;10.326;2023-01-15T14:49:02;123.95;;;69.43;;
32347;SDS011;18821;44.800;10.326;2023-01-15T14:51:32;119.97;;;71.05;;
32347;SDS011;18821;44.800;10.326;2023-01-15T14:54:09;118.85;;;70.55;;
32347;SDS011;18821;44.800;10.326;2023-01-15T14:56:41;124.47;;;72.75;;
32347;SDS011;18821;44.800;10.326;2023-01-15T15:04:46;124.05;;;72.45;;
32347;SDS011;18821;44.800;10.326;2023-01-15T15:07:19;128.52;;;74.53;;
32347;SDS011;18821;44.800;10.326;2023-01-15T15:09:57;126.32;;;74.47;;
32347;SDS011;18821;44.800;10.326;2023-01-15T15:12:42;121.57;;;69.97;;
32347;SDS011;18821;44.800;10.326;2023-01-15T15:25:57;126.50;;;73.20;;
32347;SDS011;18821;44.800;10.326;2023-01-15T15:28:25;122.32;;;71.60;;
32347;SDS011;18821;44.800;10.326;2023-01-15T15:30:51;126.65;;;73.40;;
32347;SDS011;18821;44.800;10.326;2023-01-15T15:33:24;124.50;;;73.10;;
32347;SDS011;18821;44.800;10.326;2023-01-15T15:35:56;124.20;;;72.10;;
32347;SDS011;18821;44.800;10.326;2023-01-15T15:38:25;126.80;;;72.85;;
32347;SDS011;18821;44.800;10.326;2023-01-15T15:40:59;125.10;;;71.60;;
32347;SDS011;18821;44.800;10.326;2023-01-15T15:43:41;123.55;;;72.80;;
32347;SDS011;18821;44.800;10.326;2023-01-15T15:46:35;125.65;;;70.70;;
32347;SDS011;18821;44.800;10.326;2023-01-15T15:49:36;114.47;;;66.15;;
32347;SDS011;18821;44.800;10.326;2023-01-15T15:52:11;116.10;;;67.10;;
32347;SDS011;18821;44.800;10.326;2023-01-15T15:54:58;119.28;;;69.07;;
32347;SDS011;18821;44.800;10.326;2023-01-15T15:57:26;114.90;;;67.72;;
32347;SDS011;18821;44.800;10.326;2023-01-15T15:59:55;117.70;;;70.50;;
32347;SDS011;18821;44.800;10.326;2023-01-15T16:02:23;115.25;;;69.50;;
32347;SDS011;18821;44.800;10.326;2023-01-15T16:04:50;114.80;;;66.95;;
32347;SDS011;18821;44.800;10.326;2023-01-15T16:09:52;110.80;;;66.32;;
32347;SDS011;18821;44.800;10.326;2023-01-15T16:12:24;110.60;;;64.78;;
32347;SDS011;18821;44.800;10.326;2023-01-15T16:14:54;113.68;;;67.38;;
32347;SDS011;18821;44.800;10.326;2023-01-15T16:17:22;114.95;;;68.65;;
32347;SDS011;18821;44.800;10.326;2023-01-15T16:19:54;124.18;;;71.70;;
32347;SDS011;18821;44.800;10.326;2023-01-15T16:22:21;123.63;;;69.30;;
32347;SDS011;18821;44.800;10.326;2023-01-15T16:24:57;125.75;;;73.72;;
32347;SDS011;18821;44.800;10.326;2023-01-15T16:27:26;124.32;;;70.97;;
32347;SDS011;18821;44.800;10.326;2023-01-15T16:29:57;124.63;;;71.70;;
32347;SDS011;18821;44.800;10.326;2023-01-15T16:32:27;119.72;;;68.18;;
32347;SDS011;18821;44.800;10.326;2023-01-15T16:35:03;112.70;;;68.65;;
32347;SDS011;18821;44.800;10.326;2023-01-15T16:37:40;112.13;;;66.30;;
32347;SDS011;18821;44.800;10.326;2023-01-15T16:40:07;118.65;;;66.47;;
32347;SDS011;18821;44.800;10.326;2023-01-15T16:42:45;110.30;;;65.32;;
32347;SDS011;18821;44.800;10.326;2023-01-15T16:45:19;111.43;;;64.68;;
32347;SDS011;18821;44.800;10.326;2023-01-15T16:47:59;109.50;;;63.78;;
32347;SDS011;18821;44.800;10.326;2023-01-15T16:50:31;110.72;;;66.13;;
32347;SDS011;18821;44.800;10.326;2023-01-15T16:52:58;106.80;;;62.63;;